createdAt,value
2022-09-21T00:00:15.377Z,6
2022-09-21T00:01:15.441Z,6
2022-09-21T00:02:15.473Z,7
2022-09-21T00:03:15.418Z,7
2022-09-21T00:04:15.451Z,8
2022-09-21T00:05:15.386Z,7
2022-09-21T00:06:15.374Z,8
2022-09-21T00:07:15.395Z,7
2022-09-21T00:08:15.373Z,7
2022-09-21T00:09:15.470Z,7
2022-09-21T00:10:15.361Z,7
2022-09-21T00:11:15.413Z,7
2022-09-21T00:12:15.463Z,7
2022-09-21T00:13:15.368Z,7
2022-09-21T00:14:15.377Z,6
2022-09-21T00:15:15.380Z,6
2022-09-21T00:16:15.469Z,6
2022-09-21T00:17:15.397Z,6
2022-09-21T00:18:15.381Z,6
2022-09-21T00:19:15.401Z,6
2022-09-21T00:20:15.460Z,7
2022-09-21T00:21:15.370Z,7
2022-09-21T00:22:15.423Z,6
2022-09-21T00:23:15.441Z,7
2022-09-21T00:24:15.382Z,8
2022-09-21T00:25:15.369Z,8
2022-09-21T00:26:15.435Z,8
2022-09-21T00:27:15.441Z,7
2022-09-21T00:28:15.394Z,6
2022-09-21T00:29:15.368Z,7
2022-09-21T00:30:15.359Z,7
2022-09-21T00:31:15.370Z,7
2022-09-21T00:32:15.386Z,8
2022-09-21T00:33:15.378Z,8
2022-09-21T00:34:15.414Z,8
2022-09-21T00:35:15.403Z,8
2022-09-21T00:36:15.393Z,8
2022-09-21T00:37:15.431Z,9
2022-09-21T00:38:15.368Z,9
2022-09-21T00:39:15.380Z,10
2022-09-21T00:40:15.435Z,9
2022-09-21T00:41:15.346Z,9
2022-09-21T00:42:15.431Z,9
2022-09-21T00:43:15.405Z,9
2022-09-21T00:44:15.362Z,8
2022-09-21T00:45:15.353Z,8
2022-09-21T00:46:15.365Z,8
2022-09-21T00:47:15.376Z,7
2022-09-21T00:48:15.409Z,7
2022-09-21T00:49:15.372Z,7
2022-09-21T00:50:15.406Z,7
2022-09-21T00:51:15.447Z,7
2022-09-21T00:52:15.386Z,7
2022-09-21T00:53:15.368Z,6
2022-09-21T00:54:15.437Z,7
2022-09-21T00:55:15.409Z,6
2022-09-21T00:56:15.372Z,6
2022-09-21T00:57:15.433Z,6
2022-09-21T00:58:15.471Z,6
2022-09-21T00:59:15.399Z,7
2022-09-21T01:00:15.620Z,7
2022-09-21T01:01:15.631Z,7
2022-09-21T01:02:15.620Z,7
2022-09-21T01:03:15.635Z,6
2022-09-21T01:04:15.671Z,6
2022-09-21T01:05:15.847Z,6
2022-09-21T01:06:15.573Z,6
2022-09-21T01:07:15.377Z,5
2022-09-21T01:08:15.427Z,5
2022-09-21T01:09:15.385Z,5
2022-09-21T01:10:15.370Z,5
2022-09-21T01:11:15.384Z,5
2022-09-21T01:12:15.381Z,5
2022-09-21T01:13:15.411Z,4
2022-09-21T01:14:15.469Z,4
2022-09-21T01:15:15.359Z,5
2022-09-21T01:16:15.422Z,4
2022-09-21T01:17:15.368Z,4
2022-09-21T01:18:15.371Z,4
2022-09-21T01:19:15.365Z,4
2022-09-21T01:20:15.366Z,4
2022-09-21T01:21:15.422Z,4
2022-09-21T01:22:15.460Z,4
2022-09-21T01:23:15.367Z,4
2022-09-21T01:24:15.378Z,4
2022-09-21T01:25:15.373Z,4
2022-09-21T01:26:15.376Z,4
2022-09-21T01:27:15.452Z,4
2022-09-21T01:28:15.375Z,5
2022-09-21T01:29:15.423Z,5
2022-09-21T01:30:15.508Z,6
2022-09-21T01:31:15.474Z,5
2022-09-21T01:32:15.396Z,5
2022-09-21T01:33:15.388Z,5
2022-09-21T01:34:15.367Z,5
2022-09-21T01:35:15.389Z,5
2022-09-21T01:36:15.378Z,6
2022-09-21T01:37:15.427Z,6
2022-09-21T01:38:15.371Z,6
2022-09-21T01:39:15.364Z,6
2022-09-21T01:40:15.423Z,5
2022-09-21T01:41:15.369Z,6
2022-09-21T01:42:15.386Z,6
2022-09-21T01:43:15.373Z,6
2022-09-21T01:44:15.424Z,6
2022-09-21T01:45:15.417Z,6
2022-09-21T01:46:15.385Z,6
2022-09-21T01:47:15.376Z,7
2022-09-21T01:48:15.375Z,7
2022-09-21T01:49:15.364Z,7
2022-09-21T01:50:15.379Z,6
2022-09-21T01:51:15.370Z,6
2022-09-21T01:52:15.429Z,6
2022-09-21T01:53:15.485Z,5
2022-09-21T01:54:15.373Z,6
2022-09-21T01:55:15.398Z,6
2022-09-21T01:56:15.379Z,6
2022-09-21T01:57:15.390Z,6
2022-09-21T01:58:15.434Z,5
2022-09-21T01:59:15.385Z,6
2022-09-21T02:00:15.424Z,6
2022-09-21T02:01:15.584Z,7
2022-09-21T02:02:15.447Z,7
2022-09-21T02:03:15.363Z,7
2022-09-21T02:04:15.389Z,7
2022-09-21T02:05:15.390Z,7
2022-09-21T02:06:15.374Z,7
2022-09-21T02:07:15.389Z,6
2022-09-21T02:08:15.423Z,5
2022-09-21T02:09:15.373Z,6
2022-09-21T02:10:15.390Z,5
2022-09-21T02:11:15.383Z,6
2022-09-21T02:12:18.927Z,6
2022-09-21T02:13:15.386Z,5
2022-09-21T02:14:15.393Z,6
2022-09-21T02:15:15.442Z,6
2022-09-21T02:16:15.493Z,6
2022-09-21T02:17:15.391Z,5
2022-09-21T02:18:15.428Z,5
2022-09-21T02:19:15.375Z,5
2022-09-21T02:20:15.374Z,6
2022-09-21T02:21:15.390Z,6
2022-09-21T02:22:15.389Z,6
2022-09-21T02:23:15.419Z,5
2022-09-21T02:24:15.412Z,6
2022-09-21T02:25:15.388Z,6
2022-09-21T02:26:15.379Z,7
2022-09-21T02:27:15.388Z,5
2022-09-21T02:28:15.378Z,6
2022-09-21T02:29:15.371Z,6
2022-09-21T02:30:15.379Z,6
2022-09-21T02:31:15.487Z,6
2022-09-21T02:32:15.495Z,6
2022-09-21T02:33:15.364Z,5
2022-09-21T02:34:15.375Z,5
2022-09-21T02:35:15.360Z,5
2022-09-21T02:36:15.372Z,6
2022-09-21T02:37:15.467Z,5
2022-09-21T02:38:15.381Z,6
2022-09-21T02:39:15.429Z,6
2022-09-21T02:40:15.574Z,6
2022-09-21T02:41:15.398Z,6
2022-09-21T02:42:15.404Z,6
2022-09-21T02:43:15.424Z,5
2022-09-21T02:44:15.399Z,7
2022-09-21T02:45:15.372Z,6
2022-09-21T02:46:15.465Z,6
2022-09-21T02:47:15.425Z,5
2022-09-21T02:48:15.381Z,5
2022-09-21T02:49:15.380Z,4
2022-09-21T02:50:15.387Z,4
2022-09-21T02:51:15.368Z,5
2022-09-21T02:52:15.399Z,4
2022-09-21T02:53:15.380Z,4
2022-09-21T02:54:15.448Z,4
2022-09-21T02:55:15.445Z,3
2022-09-21T02:56:15.374Z,3
2022-09-21T02:57:15.404Z,4
2022-09-21T02:58:15.407Z,3
2022-09-21T02:59:15.377Z,3
2022-09-21T03:00:15.364Z,3
2022-09-21T03:01:15.385Z,3
2022-09-21T03:02:15.572Z,4
2022-09-21T03:03:15.546Z,3
2022-09-21T03:04:15.372Z,3
2022-09-21T03:05:15.375Z,3
2022-09-21T03:06:15.397Z,4
2022-09-21T03:07:15.463Z,3
2022-09-21T03:08:15.511Z,3
2022-09-21T03:09:15.472Z,4
2022-09-21T03:10:15.477Z,3
2022-09-21T03:11:15.454Z,3
2022-09-21T03:12:15.392Z,4
2022-09-21T03:13:15.381Z,3
2022-09-21T03:14:15.385Z,4
2022-09-21T03:15:15.371Z,4
2022-09-21T03:16:15.480Z,4
2022-09-21T03:17:15.403Z,4
2022-09-21T03:18:15.419Z,4
2022-09-21T03:19:15.388Z,5
2022-09-21T03:20:15.373Z,5
2022-09-21T03:21:15.382Z,5
2022-09-21T03:22:15.381Z,4
2022-09-21T03:23:15.368Z,5
2022-09-21T03:24:15.391Z,4
2022-09-21T03:25:15.467Z,5
2022-09-21T03:26:15.469Z,4
2022-09-21T03:27:15.488Z,4
2022-09-21T03:28:15.478Z,4
2022-09-21T03:29:15.382Z,4
2022-09-21T03:30:15.381Z,4
2022-09-21T03:31:15.510Z,4
2022-09-21T03:32:15.425Z,4
2022-09-21T03:33:15.426Z,4
2022-09-21T03:34:15.480Z,4
2022-09-21T03:35:15.388Z,4
2022-09-21T03:36:15.543Z,4
2022-09-21T03:37:15.380Z,4
2022-09-21T03:38:15.431Z,4
2022-09-21T03:39:15.462Z,4
2022-09-21T03:40:15.532Z,4
2022-09-21T03:41:15.478Z,4
2022-09-21T03:42:15.537Z,4
2022-09-21T03:43:15.476Z,4
2022-09-21T03:44:15.385Z,5
2022-09-21T03:45:15.377Z,4
2022-09-21T03:46:15.426Z,5
2022-09-21T03:47:15.417Z,5
2022-09-21T03:48:15.384Z,5
2022-09-21T03:49:15.502Z,5
2022-09-21T03:50:15.518Z,6
2022-09-21T03:51:15.416Z,6
2022-09-21T03:52:15.430Z,6
2022-09-21T03:53:15.452Z,7
2022-09-21T03:54:15.388Z,6
2022-09-21T03:55:15.403Z,6
2022-09-21T03:56:15.483Z,6
2022-09-21T03:57:15.468Z,6
2022-09-21T03:58:15.380Z,6
2022-09-21T03:59:15.418Z,6
2022-09-21T04:00:15.550Z,5
2022-09-21T04:01:15.623Z,6
2022-09-21T04:02:15.638Z,6
2022-09-21T04:03:15.494Z,5
2022-09-21T04:04:15.549Z,5
2022-09-21T04:05:15.577Z,5
2022-09-21T04:06:15.599Z,4
2022-09-21T04:07:15.638Z,4
2022-09-21T04:08:15.636Z,5
2022-09-21T04:09:15.677Z,4
2022-09-21T04:10:15.640Z,4
2022-09-21T04:11:15.558Z,4
2022-09-21T04:12:15.650Z,4
2022-09-21T04:13:15.718Z,4
2022-09-21T04:14:15.379Z,5
2022-09-21T04:15:15.368Z,5
2022-09-21T04:16:15.403Z,5
2022-09-21T04:17:15.394Z,4
2022-09-21T04:18:15.502Z,5
2022-09-21T04:19:15.393Z,5
2022-09-21T04:20:15.502Z,5
2022-09-21T04:21:15.522Z,6
2022-09-21T04:22:15.429Z,6
2022-09-21T04:23:15.423Z,6
2022-09-21T04:24:15.378Z,6
2022-09-21T04:25:15.392Z,6
2022-09-21T04:26:15.452Z,6
2022-09-21T04:27:15.400Z,6
2022-09-21T04:28:15.453Z,8
2022-09-21T04:29:15.478Z,7
2022-09-21T04:30:15.466Z,6
2022-09-21T04:31:15.487Z,6
2022-09-21T04:32:15.523Z,7
2022-09-21T04:33:15.484Z,6
2022-09-21T04:34:15.400Z,5
2022-09-21T04:35:15.381Z,5
2022-09-21T04:36:15.574Z,5
2022-09-21T04:37:15.431Z,4
2022-09-21T04:38:15.482Z,5
2022-09-21T04:39:15.439Z,6
2022-09-21T04:40:15.608Z,6
2022-09-21T04:41:15.585Z,6
2022-09-21T04:42:15.616Z,6
2022-09-21T04:43:19.606Z,6
2022-09-21T04:44:15.608Z,6
2022-09-21T04:45:15.599Z,5
2022-09-21T04:46:15.534Z,5
2022-09-21T04:47:15.496Z,4
2022-09-21T04:48:15.494Z,4
2022-09-21T04:49:15.492Z,5
2022-09-21T04:50:15.395Z,5
2022-09-21T04:51:15.411Z,5
2022-09-21T04:52:18.966Z,4
2022-09-21T04:53:15.404Z,4
2022-09-21T04:54:15.389Z,4
2022-09-21T04:55:15.418Z,4
2022-09-21T04:56:15.445Z,4
2022-09-21T04:57:15.456Z,4
2022-09-21T04:58:15.447Z,4
2022-09-21T04:59:15.448Z,4
2022-09-21T05:00:15.466Z,4
2022-09-21T05:01:15.506Z,4
2022-09-21T05:02:15.385Z,4
2022-09-21T05:03:15.565Z,4
2022-09-21T05:04:15.379Z,5
2022-09-21T05:05:15.461Z,4
2022-09-21T05:06:15.393Z,4
2022-09-21T05:07:15.493Z,4
2022-09-21T05:08:15.508Z,4
2022-09-21T05:09:15.413Z,4
2022-09-21T05:10:15.434Z,4
2022-09-21T05:11:15.425Z,4
2022-09-21T05:12:15.402Z,4
2022-09-21T05:13:19.644Z,3
2022-09-21T05:14:15.392Z,4
2022-09-21T05:15:15.433Z,4
2022-09-21T05:16:15.476Z,4
2022-09-21T05:17:15.473Z,4
2022-09-21T05:18:15.468Z,4
2022-09-21T05:19:15.495Z,3
2022-09-21T05:20:15.505Z,3
2022-09-21T05:21:15.386Z,3
2022-09-21T05:22:15.509Z,4
2022-09-21T05:23:16.877Z,4
2022-09-21T05:24:15.383Z,4
2022-09-21T05:25:15.400Z,5
2022-09-21T05:26:15.430Z,4
2022-09-21T05:27:15.427Z,4
2022-09-21T05:28:15.382Z,4
2022-09-21T05:29:15.439Z,4
2022-09-21T05:30:15.439Z,5
2022-09-21T05:31:18.106Z,4
2022-09-21T05:32:15.400Z,4
2022-09-21T05:33:15.464Z,4
2022-09-21T05:34:15.382Z,4
2022-09-21T05:35:15.380Z,5
2022-09-21T05:36:15.488Z,4
2022-09-21T05:37:15.400Z,4
2022-09-21T05:38:15.510Z,3
2022-09-21T05:39:15.468Z,3
2022-09-21T05:40:15.539Z,4
2022-09-21T05:41:15.421Z,5
2022-09-21T05:42:15.391Z,4
2022-09-21T05:43:15.419Z,4
2022-09-21T05:44:15.377Z,4
2022-09-21T05:45:15.394Z,5
2022-09-21T05:46:15.496Z,4
2022-09-21T05:47:15.392Z,4
2022-09-21T05:48:15.456Z,4
2022-09-21T05:49:15.378Z,6
2022-09-21T05:50:15.515Z,4
2022-09-21T05:51:15.374Z,4
2022-09-21T05:52:15.388Z,4
2022-09-21T05:53:15.493Z,5
2022-09-21T05:54:15.432Z,5
2022-09-21T05:55:15.409Z,6
2022-09-21T05:56:15.692Z,4
2022-09-21T05:57:15.596Z,5
2022-09-21T05:58:15.603Z,4
2022-09-21T05:59:15.649Z,4
2022-09-21T06:00:15.741Z,5
2022-09-21T06:01:15.823Z,4
2022-09-21T06:02:15.707Z,5
2022-09-21T06:03:17.791Z,5
2022-09-21T06:04:15.433Z,4
2022-09-21T06:05:15.383Z,5
2022-09-21T06:06:15.477Z,5
2022-09-21T06:07:15.487Z,4
2022-09-21T06:08:15.384Z,5
2022-09-21T06:09:15.527Z,4
2022-09-21T06:10:15.528Z,5
2022-09-21T06:11:15.393Z,5
2022-09-21T06:12:15.406Z,5
2022-09-21T06:13:15.372Z,5
2022-09-21T06:14:15.403Z,5
2022-09-21T06:15:15.450Z,6
2022-09-21T06:16:15.485Z,5
2022-09-21T06:17:15.467Z,6
2022-09-21T06:18:18.010Z,5
2022-09-21T06:19:15.451Z,5
2022-09-21T06:20:15.460Z,6
2022-09-21T06:21:15.532Z,5
2022-09-21T06:22:15.391Z,6
2022-09-21T06:23:15.597Z,6
2022-09-21T06:24:15.382Z,6
2022-09-21T06:25:15.447Z,5
2022-09-21T06:26:15.399Z,6
2022-09-21T06:27:15.424Z,8
2022-09-21T06:28:15.376Z,5
2022-09-21T06:29:15.388Z,6
2022-09-21T06:30:15.420Z,7
2022-09-21T06:31:15.385Z,6
2022-09-21T06:32:15.450Z,6
2022-09-21T06:33:15.426Z,6
2022-09-21T06:34:15.375Z,6
2022-09-21T06:35:15.396Z,6
2022-09-21T06:36:15.486Z,6
2022-09-21T06:37:15.495Z,6
2022-09-21T06:38:15.475Z,6
2022-09-21T06:39:15.473Z,6
2022-09-21T06:40:15.598Z,6
2022-09-21T06:41:20.852Z,7
2022-09-21T06:42:15.396Z,7
2022-09-21T06:43:15.498Z,7
2022-09-21T06:44:15.383Z,6
2022-09-21T06:45:15.367Z,6
2022-09-21T06:46:15.490Z,6
2022-09-21T06:47:15.448Z,6
2022-09-21T06:48:15.556Z,7
2022-09-21T06:49:15.556Z,7
2022-09-21T06:50:15.376Z,7
2022-09-21T06:51:15.387Z,6
2022-09-21T06:52:15.400Z,6
2022-09-21T06:53:15.372Z,6
2022-09-21T06:54:15.459Z,8
2022-09-21T06:55:15.404Z,6
2022-09-21T06:56:15.444Z,7
2022-09-21T06:57:15.467Z,7
2022-09-21T06:58:15.406Z,6
2022-09-21T06:59:15.405Z,6
2022-09-21T07:00:15.408Z,8
2022-09-21T07:01:15.572Z,7
2022-09-21T07:02:15.510Z,6
2022-09-21T07:03:15.384Z,7
2022-09-21T07:04:15.421Z,7
2022-09-21T07:05:15.376Z,6
2022-09-21T07:06:15.383Z,6
2022-09-21T07:07:15.466Z,7
2022-09-21T07:10:19.915Z,7
2022-09-21T07:11:15.541Z,7
2022-09-21T07:12:15.438Z,8
2022-09-21T07:13:15.393Z,7
2022-09-21T07:14:15.389Z,6
2022-09-21T07:15:15.373Z,8
2022-09-21T07:16:15.462Z,7
2022-09-21T07:17:15.933Z,8
2022-09-21T07:18:15.409Z,7
2022-09-21T07:19:15.439Z,8
2022-09-21T07:20:15.437Z,8
2022-09-21T07:21:15.439Z,8
2022-09-21T07:22:15.385Z,8
2022-09-21T07:23:15.447Z,7
2022-09-21T07:24:15.387Z,7
2022-09-21T07:25:15.404Z,7
2022-09-21T07:26:15.485Z,7
2022-09-21T07:27:15.504Z,7
2022-09-21T07:28:15.477Z,7
2022-09-21T07:29:15.393Z,8
2022-09-21T07:30:15.385Z,7
2022-09-21T07:31:15.499Z,8
2022-09-21T07:32:15.385Z,8
2022-09-21T07:33:15.495Z,7
2022-09-21T07:34:15.379Z,9
2022-09-21T07:35:15.432Z,9
2022-09-21T07:36:15.546Z,10
2022-09-21T07:37:15.377Z,8
2022-09-21T07:38:15.456Z,8
2022-09-21T07:39:15.371Z,7
2022-09-21T07:40:15.470Z,9
2022-09-21T07:41:15.457Z,8
2022-09-21T07:42:15.474Z,8
2022-09-21T07:43:15.453Z,9
2022-09-21T07:44:15.490Z,10
2022-09-21T07:45:15.414Z,9
2022-09-21T07:46:15.505Z,9
2022-09-21T07:47:15.569Z,8
2022-09-21T07:48:15.666Z,8
2022-09-21T07:49:15.484Z,8
2022-09-21T07:50:15.523Z,8
2022-09-21T07:51:15.599Z,8
2022-09-21T07:52:15.641Z,8
2022-09-21T07:53:15.684Z,9
2022-09-21T07:54:15.720Z,7
2022-09-21T07:55:15.572Z,8
2022-09-21T07:56:15.664Z,8
2022-09-21T07:57:15.758Z,8
2022-09-21T07:58:15.757Z,7
2022-09-21T07:59:15.876Z,8
2022-09-21T08:00:15.705Z,8
2022-09-21T08:01:15.604Z,7
2022-09-21T08:02:15.465Z,7
2022-09-21T08:03:15.383Z,8
2022-09-21T08:04:15.384Z,7
2022-09-21T08:05:15.379Z,7
2022-09-21T08:06:15.531Z,8
2022-09-21T08:07:15.493Z,6
2022-09-21T08:08:15.388Z,8
2022-09-21T08:09:15.448Z,8
2022-09-21T08:10:15.411Z,8
2022-09-21T08:11:15.459Z,8
2022-09-21T08:12:15.476Z,9
2022-09-21T08:13:15.491Z,7
2022-09-21T08:14:15.431Z,7
2022-09-21T08:15:37.103Z,7
2022-09-21T08:16:15.440Z,7
2022-09-21T08:17:15.382Z,7
2022-09-21T08:18:15.404Z,7
2022-09-21T08:19:15.381Z,8
2022-09-21T08:20:15.372Z,7
2022-09-21T08:21:15.422Z,7
2022-09-21T08:22:15.500Z,8
2022-09-21T08:23:15.398Z,7
2022-09-21T08:24:15.442Z,7
2022-09-21T08:25:15.390Z,7
2022-09-21T08:26:15.552Z,9
2022-09-21T08:27:15.483Z,8
2022-09-21T08:28:15.459Z,8
2022-09-21T08:29:15.437Z,8
2022-09-21T08:30:15.465Z,8
2022-09-21T08:31:15.474Z,8
2022-09-21T08:32:27.711Z,8
2022-09-21T08:33:15.392Z,7
2022-09-21T08:34:15.370Z,8
2022-09-21T08:35:15.392Z,8
2022-09-21T08:36:15.426Z,8
2022-09-21T08:37:15.552Z,8
2022-09-21T08:38:15.460Z,7
2022-09-21T08:39:15.438Z,10
2022-09-21T08:40:15.442Z,9
2022-09-21T08:41:15.379Z,15
2022-09-21T08:42:15.400Z,18
2022-09-21T08:43:15.439Z,13
2022-09-21T08:44:15.415Z,15
2022-09-21T08:45:15.415Z,14
2022-09-21T08:46:15.521Z,11
2022-09-21T08:47:15.495Z,12
2022-09-21T08:48:15.489Z,7
2022-09-21T08:49:15.404Z,6
2022-09-21T08:50:15.401Z,7
2022-09-21T08:51:15.412Z,8
2022-09-21T08:52:17.057Z,8
2022-09-21T08:53:15.526Z,8
2022-09-21T08:54:15.380Z,7
2022-09-21T08:55:17.624Z,7
2022-09-21T08:56:15.380Z,9
2022-09-21T08:57:15.465Z,8
2022-09-21T08:58:15.466Z,7
2022-09-21T08:59:15.472Z,6
2022-09-21T09:00:15.458Z,6
2022-09-21T09:01:15.530Z,7
2022-09-21T09:02:15.485Z,8
2022-09-21T09:03:15.387Z,6
2022-09-21T09:04:15.385Z,6
2022-09-21T09:05:15.394Z,7
2022-09-21T09:06:15.401Z,6
2022-09-21T09:07:15.420Z,6
2022-09-21T09:08:15.452Z,5
2022-09-21T09:09:15.425Z,5
2022-09-21T09:10:15.456Z,4
2022-09-21T09:11:15.437Z,5
2022-09-21T09:12:15.407Z,4
2022-09-21T09:13:15.462Z,4
2022-09-21T09:14:15.394Z,4
2022-09-21T09:15:15.401Z,4
2022-09-21T09:16:15.510Z,4
2022-09-21T09:17:15.480Z,4
2022-09-21T09:18:15.383Z,4
2022-09-21T09:19:15.435Z,5
2022-09-21T09:20:15.490Z,4
2022-09-21T09:21:21.247Z,4
2022-09-21T09:22:15.397Z,4
2022-09-21T09:23:15.404Z,4
2022-09-21T09:24:15.440Z,4
2022-09-21T09:25:15.485Z,4
2022-09-21T09:26:15.420Z,4
2022-09-21T09:27:15.394Z,4
2022-09-21T09:28:15.437Z,4
2022-09-21T09:29:15.453Z,4
2022-09-21T09:30:15.388Z,4
2022-09-21T09:31:15.440Z,3
2022-09-21T09:32:15.445Z,4
2022-09-21T09:33:15.471Z,3
2022-09-21T09:34:15.384Z,3
2022-09-21T09:35:15.388Z,3
2022-09-21T09:36:15.437Z,4
2022-09-21T09:37:15.422Z,3
2022-09-21T09:38:15.397Z,4
2022-09-21T09:39:15.409Z,3
2022-09-21T09:40:15.579Z,4
2022-09-21T09:41:15.430Z,3
2022-09-21T09:42:15.402Z,3
2022-09-21T09:43:15.455Z,3
2022-09-21T09:44:15.385Z,3
2022-09-21T09:45:15.374Z,3
2022-09-21T09:46:15.535Z,3
2022-09-21T09:47:15.483Z,3
2022-09-21T09:48:16.007Z,2
2022-09-21T09:49:15.384Z,3
2022-09-21T09:50:15.473Z,3
2022-09-21T09:51:15.386Z,2
2022-09-21T09:52:15.418Z,3
2022-09-21T09:53:15.400Z,3
2022-09-21T09:54:15.402Z,3
2022-09-21T09:55:15.487Z,3
2022-09-21T09:56:15.524Z,3
2022-09-21T09:57:15.414Z,2
2022-09-21T09:58:15.497Z,2
2022-09-21T09:59:15.438Z,2
2022-09-21T10:00:15.378Z,2
2022-09-21T10:01:15.428Z,2
2022-09-21T10:02:15.494Z,2
2022-09-21T10:03:15.435Z,2
2022-09-21T10:04:15.561Z,2
2022-09-21T10:05:15.396Z,1
2022-09-21T10:06:15.392Z,2
2022-09-21T10:07:15.505Z,2
2022-09-21T10:08:15.406Z,2
2022-09-21T10:09:15.507Z,2
2022-09-21T10:10:15.418Z,1
2022-09-21T10:11:15.453Z,2
2022-09-21T10:12:15.498Z,2
2022-09-21T10:13:15.384Z,2
2022-09-21T10:14:15.396Z,2
2022-09-21T10:15:15.393Z,1
2022-09-21T10:16:15.487Z,2
2022-09-21T10:17:15.507Z,2
2022-09-21T10:18:15.471Z,2
2022-09-21T10:19:15.465Z,2
2022-09-21T10:20:15.479Z,1
2022-09-21T10:21:15.474Z,2
2022-09-21T10:22:15.414Z,2
2022-09-21T10:23:15.489Z,1
2022-09-21T10:24:15.384Z,2
2022-09-21T10:25:15.403Z,2
2022-09-21T10:26:15.511Z,2
2022-09-21T10:27:15.452Z,2
2022-09-21T10:28:15.391Z,1
2022-09-21T10:29:15.438Z,2
2022-09-21T10:30:15.393Z,2
2022-09-21T10:31:15.411Z,1
2022-09-21T10:32:15.420Z,1
2022-09-21T10:33:15.396Z,2
2022-09-21T10:34:15.437Z,1
2022-09-21T10:35:15.486Z,2
2022-09-21T10:36:15.399Z,2
2022-09-21T10:37:15.423Z,1
2022-09-21T10:38:19.746Z,1
2022-09-21T10:39:15.398Z,1
2022-09-21T10:40:15.485Z,1
2022-09-21T10:41:15.393Z,1
2022-09-21T10:42:15.467Z,1
2022-09-21T10:43:15.484Z,1
2022-09-21T10:44:15.390Z,1
2022-09-21T10:45:15.409Z,1
2022-09-21T10:46:15.436Z,1
2022-09-21T10:47:16.816Z,1
2022-09-21T10:48:15.442Z,1
2022-09-21T10:49:15.397Z,1
2022-09-21T10:50:15.439Z,1
2022-09-21T10:51:15.493Z,1
2022-09-21T10:52:15.436Z,1
2022-09-21T10:53:15.405Z,1
2022-09-21T10:54:15.451Z,1
2022-09-21T10:55:15.418Z,1
2022-09-21T10:56:16.668Z,2
2022-09-21T10:57:15.426Z,1
2022-09-21T10:58:15.495Z,1
2022-09-21T10:59:15.393Z,1
2022-09-21T11:00:15.405Z,1
2022-09-21T11:01:16.036Z,1
2022-09-21T11:02:15.483Z,1
2022-09-21T11:03:15.444Z,1
2022-09-21T11:04:15.397Z,1
2022-09-21T11:05:15.453Z,1
2022-09-21T11:06:15.446Z,1
2022-09-21T11:07:15.491Z,1
2022-09-21T11:08:15.435Z,2
2022-09-21T11:09:15.412Z,1
2022-09-21T11:10:15.499Z,1
2022-09-21T11:11:15.487Z,1
2022-09-21T11:12:15.420Z,1
2022-09-21T11:13:15.507Z,1
2022-09-21T11:14:15.495Z,1
2022-09-21T11:15:15.381Z,1
2022-09-21T11:16:15.455Z,1
2022-09-21T11:17:15.432Z,1
2022-09-21T11:18:15.429Z,1
2022-09-21T11:19:15.537Z,1
2022-09-21T11:20:15.494Z,1
2022-09-21T11:21:15.550Z,1
2022-09-21T11:22:15.500Z,1
2022-09-21T11:23:15.403Z,1
2022-09-21T11:24:15.391Z,1
2022-09-21T11:25:15.490Z,1
2022-09-21T11:26:15.486Z,2
2022-09-21T11:27:15.508Z,1
2022-09-21T11:28:15.489Z,1
2022-09-21T11:29:15.580Z,1
2022-09-21T11:30:15.509Z,1
2022-09-21T11:31:15.533Z,1
2022-09-21T11:32:15.416Z,1
2022-09-21T11:33:15.531Z,1
2022-09-21T11:34:15.396Z,1
2022-09-21T11:35:15.400Z,1
2022-09-21T11:36:15.394Z,1
2022-09-21T11:37:15.462Z,1
2022-09-21T11:38:15.456Z,1
2022-09-21T11:39:15.458Z,1
2022-09-21T11:40:15.517Z,1
2022-09-21T11:41:15.398Z,1
2022-09-21T11:42:15.414Z,1
2022-09-21T11:43:15.494Z,1
2022-09-21T11:44:18.861Z,1
2022-09-21T11:45:15.448Z,1
2022-09-21T11:46:15.547Z,1
2022-09-21T11:47:15.540Z,1
2022-09-21T11:48:15.411Z,1
2022-09-21T11:49:15.419Z,1
2022-09-21T11:50:31.496Z,1
2022-09-21T11:51:15.691Z,1
2022-09-21T11:52:15.461Z,1
2022-09-21T11:53:15.496Z,1
2022-09-21T11:54:15.404Z,1
2022-09-21T11:55:15.434Z,1
2022-09-21T11:56:15.419Z,1
2022-09-21T11:57:15.449Z,1
2022-09-21T11:58:15.450Z,1
2022-09-21T11:59:15.392Z,1
2022-09-21T12:00:15.734Z,1
2022-09-21T12:01:15.556Z,1
2022-09-21T12:02:15.584Z,1
2022-09-21T12:03:15.396Z,1
2022-09-21T12:04:15.406Z,1
2022-09-21T12:05:15.549Z,1
2022-09-21T12:06:15.426Z,1
2022-09-21T12:07:15.445Z,1
2022-09-21T12:08:15.542Z,1
2022-09-21T12:09:15.465Z,1
2022-09-21T12:10:15.958Z,1
2022-09-21T12:11:15.460Z,1
2022-09-21T12:12:15.544Z,1
2022-09-21T12:13:15.570Z,2
2022-09-21T12:14:15.494Z,1
2022-09-21T12:15:15.946Z,1
2022-09-21T12:16:15.630Z,1
2022-09-21T12:17:15.634Z,1
2022-09-21T12:18:15.503Z,1
2022-09-21T12:19:15.727Z,1
2022-09-21T12:20:15.745Z,1
2022-09-21T12:21:15.447Z,1
2022-09-21T12:22:15.432Z,1
2022-09-21T12:23:15.548Z,1
2022-09-21T12:24:15.493Z,1
2022-09-21T12:25:15.737Z,1
2022-09-21T12:26:15.523Z,1
2022-09-21T12:27:15.497Z,1
2022-09-21T12:28:15.458Z,1
2022-09-21T12:29:15.396Z,0
2022-09-21T12:30:15.765Z,1
2022-09-21T12:31:15.519Z,1
2022-09-21T12:32:15.524Z,1
2022-09-21T12:33:15.425Z,1
2022-09-21T12:34:15.419Z,1
2022-09-21T12:35:15.411Z,1
2022-09-21T12:36:15.525Z,1
2022-09-21T12:37:15.560Z,1
2022-09-21T12:38:15.414Z,1
2022-09-21T12:39:15.457Z,1
2022-09-21T12:40:16.014Z,1
2022-09-21T12:41:15.423Z,1
2022-09-21T12:42:15.431Z,1
2022-09-21T12:43:15.469Z,1
2022-09-21T12:44:15.431Z,1
2022-09-21T12:45:15.409Z,1
2022-09-21T12:46:15.513Z,1
2022-09-21T12:47:15.516Z,1
2022-09-21T12:48:15.489Z,1
2022-09-21T12:49:15.505Z,1
2022-09-21T12:50:15.416Z,1
2022-09-21T12:51:15.527Z,1
2022-09-21T12:52:15.465Z,1
2022-09-21T12:53:15.415Z,1
2022-09-21T12:54:15.493Z,1
2022-09-21T12:55:17.264Z,1
2022-09-21T12:56:15.454Z,1
2022-09-21T12:57:38.193Z,1
2022-09-21T12:58:16.346Z,1
2022-09-21T12:59:15.469Z,1
2022-09-21T13:00:15.478Z,1
2022-09-21T13:01:15.600Z,1
2022-09-21T13:02:15.703Z,1
2022-09-21T13:03:15.510Z,1
2022-09-21T13:04:15.409Z,1
2022-09-21T13:05:15.419Z,1
2022-09-21T13:06:15.503Z,1
2022-09-21T13:07:15.542Z,1
2022-09-21T13:08:15.515Z,1
2022-09-21T13:09:15.537Z,1
2022-09-21T13:10:15.550Z,1
2022-09-21T13:11:15.533Z,1
2022-09-21T13:12:15.441Z,1
2022-09-21T13:13:15.456Z,1
2022-09-21T13:14:15.457Z,1
2022-09-21T13:15:15.417Z,1
2022-09-21T13:16:15.503Z,1
2022-09-21T13:17:15.505Z,1
2022-09-21T13:18:15.482Z,1
2022-09-21T13:19:15.490Z,1
2022-09-21T13:20:15.490Z,1
2022-09-21T13:21:15.515Z,1
2022-09-21T13:22:15.445Z,1
2022-09-21T13:23:15.545Z,1
2022-09-21T13:24:15.431Z,1
2022-09-21T13:25:15.511Z,1
2022-09-21T13:26:15.537Z,1
2022-09-21T13:27:15.426Z,1
2022-09-21T13:28:15.444Z,1
2022-09-21T13:29:15.452Z,1
2022-09-21T13:30:15.472Z,0
2022-09-21T13:31:37.067Z,1
2022-09-21T13:32:15.484Z,1
2022-09-21T13:33:15.473Z,1
2022-09-21T13:34:15.498Z,1
2022-09-21T13:35:15.436Z,1
2022-09-21T13:36:15.528Z,1
2022-09-21T13:37:15.453Z,1
2022-09-21T13:38:15.507Z,1
2022-09-21T13:39:15.525Z,1
2022-09-21T13:40:15.589Z,1
2022-09-21T13:41:15.528Z,1
2022-09-21T13:42:15.530Z,1
2022-09-21T13:43:15.445Z,1
2022-09-21T13:44:15.438Z,1
2022-09-21T13:45:15.461Z,1
2022-09-21T13:46:15.445Z,0
2022-09-21T13:47:15.446Z,0
2022-09-21T13:48:15.421Z,0
2022-09-21T13:49:15.473Z,0
2022-09-21T13:50:15.504Z,0
2022-09-21T13:51:15.431Z,0
2022-09-21T13:52:15.437Z,0
2022-09-21T13:53:15.471Z,0
2022-09-21T13:54:15.451Z,0
2022-09-21T13:55:15.470Z,1
2022-09-21T13:56:15.521Z,1
2022-09-21T13:57:15.550Z,1
2022-09-21T13:58:15.430Z,0
2022-09-21T13:59:15.537Z,0
2022-09-21T14:00:15.454Z,1
2022-09-21T14:01:42.332Z,0
2022-09-21T14:02:15.554Z,0
2022-09-21T14:03:15.445Z,1
2022-09-21T14:04:15.492Z,0
2022-09-21T14:05:15.484Z,0
2022-09-21T14:06:15.482Z,1
2022-09-21T14:07:15.463Z,1
2022-09-21T14:08:15.507Z,0
2022-09-21T14:09:15.511Z,1
2022-09-21T14:10:15.529Z,1
2022-09-21T14:11:15.519Z,1
2022-09-21T14:12:15.507Z,1
2022-09-21T14:13:15.531Z,1
2022-09-21T14:14:15.453Z,0
2022-09-21T14:15:15.439Z,0
2022-09-21T14:16:15.514Z,1
2022-09-21T14:17:15.461Z,0
2022-09-21T14:18:15.569Z,0
2022-09-21T14:19:15.466Z,1
2022-09-21T14:20:15.496Z,0
2022-09-21T14:21:15.612Z,0
2022-09-21T14:22:15.453Z,0
2022-09-21T14:23:15.503Z,0
2022-09-21T14:24:15.451Z,0
2022-09-21T14:25:15.498Z,0
2022-09-21T14:26:15.515Z,0
2022-09-21T14:27:15.550Z,1
2022-09-21T14:28:15.539Z,1
2022-09-21T14:29:15.449Z,0
2022-09-21T14:30:15.570Z,1
2022-09-21T14:31:15.519Z,0
2022-09-21T14:32:15.509Z,0
2022-09-21T14:33:15.436Z,0
2022-09-21T14:34:15.452Z,1
2022-09-21T14:35:15.520Z,1
2022-09-21T14:36:15.590Z,0
2022-09-21T14:37:15.512Z,0
2022-09-21T14:38:15.507Z,0
2022-09-21T14:39:15.502Z,0
2022-09-21T14:40:15.582Z,1
2022-09-21T14:41:17.242Z,1
2022-09-21T14:42:15.467Z,0
2022-09-21T14:43:15.530Z,0
2022-09-21T14:44:15.522Z,0
2022-09-21T14:45:15.454Z,0
2022-09-21T14:46:15.696Z,0
2022-09-21T14:47:15.559Z,0
2022-09-21T14:48:15.542Z,1